sensor_id;sensor_type;location;lat;lon;timestamp;temperature;humidity
31527;DHT22;18136;42.236;-73.040;2023-01-19T00:01:33;1.60;99.90
31527;DHT22;18136;42.236;-73.040;2023-01-19T00:03:59;1.50;99.90
31527;DHT22;18136;42.236;-73.040;2023-01-19T00:06:26;1.60;99.90
31527;DHT22;18136;42.236;-73.040;2023-01-19T00:08:52;1.50;99.90
31527;DHT22;18136;42.236;-73.040;2023-01-19T00:11:18;1.60;99.90
31527;DHT22;18136;42.236;-73.040;2023-01-19T00:13:44;1.60;99.90
31527;DHT22;18136;42.236;-73.040;2023-01-19T00:16:18;1.60;99.90
31527;DHT22;18136;42.236;-73.040;2023-01-19T00:18:46;1.60;99.90
31527;DHT22;18136;42.236;-73.040;2023-01-19T00:21:13;1.60;99.90
31527;DHT22;18136;42.236;-73.040;2023-01-19T00:23:42;1.60;99.90
31527;DHT22;18136;42.236;-73.040;2023-01-19T00:26:12;1.60;99.90
31527;DHT22;18136;42.236;-73.040;2023-01-19T00:28:43;1.60;99.90
31527;DHT22;18136;42.236;-73.040;2023-01-19T00:31:10;1.60;99.90
31527;DHT22;18136;42.236;-73.040;2023-01-19T00:33:36;1.60;99.90
31527;DHT22;18136;42.236;-73.040;2023-01-19T00:36:03;1.70;99.90
31527;DHT22;18136;42.236;-73.040;2023-01-19T00:38:29;1.70;99.90
31527;DHT22;18136;42.236;-73.040;2023-01-19T00:40:57;1.70;99.90
31527;DHT22;18136;42.236;-73.040;2023-01-19T00:43:23;1.70;99.90
31527;DHT22;18136;42.236;-73.040;2023-01-19T00:45:49;1.70;99.90
31527;DHT22;18136;42.236;-73.040;2023-01-19T00:48:15;1.70;99.90
31527;DHT22;18136;42.236;-73.040;2023-01-19T00:50:41;1.70;99.90
31527;DHT22;18136;42.236;-73.040;2023-01-19T00:53:08;1.70;99.90
31527;DHT22;18136;42.236;-73.040;2023-01-19T00:55:34;1.70;99.90
31527;DHT22;18136;42.236;-73.040;2023-01-19T00:58:00;1.70;99.90
31527;DHT22;18136;42.236;-73.040;2023-01-19T01:00:27;1.70;99.90
31527;DHT22;18136;42.236;-73.040;2023-01-19T01:02:53;1.60;99.90
31527;DHT22;18136;42.236;-73.040;2023-01-19T01:05:20;1.60;99.90
31527;DHT22;18136;42.236;-73.040;2023-01-19T01:07:46;1.70;99.90
31527;DHT22;18136;42.236;-73.040;2023-01-19T01:10:22;1.70;99.90
31527;DHT22;18136;42.236;-73.040;2023-01-19T01:12:49;1.60;99.90
31527;DHT22;18136;42.236;-73.040;2023-01-19T01:15:16;1.60;99.90
31527;DHT22;18136;42.236;-73.040;2023-01-19T01:17:43;1.60;99.90
31527;DHT22;18136;42.236;-73.040;2023-01-19T01:20:17;1.60;99.90
31527;DHT22;18136;42.236;-73.040;2023-01-19T01:22:46;1.60;99.90
31527;DHT22;18136;42.236;-73.040;2023-01-19T01:25:15;1.60;99.90
31527;DHT22;18136;42.236;-73.040;2023-01-19T01:27:41;1.60;99.90
31527;DHT22;18136;42.236;-73.040;2023-01-19T01:30:10;1.60;99.90
31527;DHT22;18136;42.236;-73.040;2023-01-19T01:32:37;1.70;99.90
31527;DHT22;18136;42.236;-73.040;2023-01-19T01:35:03;1.60;99.90
31527;DHT22;18136;42.236;-73.040;2023-01-19T01:37:30;1.60;99.90
31527;DHT22;18136;42.236;-73.040;2023-01-19T01:39:57;1.60;99.90
31527;DHT22;18136;42.236;-73.040;2023-01-19T01:42:28;1.50;99.90
31527;DHT22;18136;42.236;-73.040;2023-01-19T01:45:00;1.60;99.90
31527;DHT22;18136;42.236;-73.040;2023-01-19T01:47:43;1.60;99.90
31527;DHT22;18136;42.236;-73.040;2023-01-19T01:50:25;1.60;99.90
31527;DHT22;18136;42.236;-73.040;2023-01-19T01:52:59;1.60;99.90
31527;DHT22;18136;42.236;-73.040;2023-01-19T01:55:28;1.60;99.90
31527;DHT22;18136;42.236;-73.040;2023-01-19T01:58:00;1.50;99.90
31527;DHT22;18136;42.236;-73.040;2023-01-19T02:00:29;1.50;99.90
31527;DHT22;18136;42.236;-73.040;2023-01-19T02:03:15;1.50;99.90
31527;DHT22;18136;42.236;-73.040;2023-01-19T02:05:43;1.50;99.90
31527;DHT22;18136;42.236;-73.040;2023-01-19T02:08:26;1.50;99.90
31527;DHT22;18136;42.236;-73.040;2023-01-19T02:11:12;1.50;99.90
31527;DHT22;18136;42.236;-73.040;2023-01-19T02:13:57;1.50;99.90
31527;DHT22;18136;42.236;-73.040;2023-01-19T02:16:23;1.50;99.90
31527;DHT22;18136;42.236;-73.040;2023-01-19T02:18:49;1.50;99.90
31527;DHT22;18136;42.236;-73.040;2023-01-19T02:23:57;1.60;99.90
31527;DHT22;18136;42.236;-73.040;2023-01-19T02:26:33;1.60;99.90
31527;DHT22;18136;42.236;-73.040;2023-01-19T02:29:19;1.60;99.90
31527;DHT22;18136;42.236;-73.040;2023-01-19T02:31:46;1.50;99.90
31527;DHT22;18136;42.236;-73.040;2023-01-19T02:34:16;1.50;99.90
31527;DHT22;18136;42.236;-73.040;2023-01-19T02:36:56;1.50;99.90
31527;DHT22;18136;42.236;-73.040;2023-01-19T02:39:33;1.50;99.90
31527;DHT22;18136;42.236;-73.040;2023-01-19T02:42:09;1.50;99.90
31527;DHT22;18136;42.236;-73.040;2023-01-19T02:44:37;1.40;99.90
31527;DHT22;18136;42.236;-73.040;2023-01-19T02:47:05;1.50;99.90
31527;DHT22;18136;42.236;-73.040;2023-01-19T02:49:31;1.40;99.90
31527;DHT22;18136;42.236;-73.040;2023-01-19T02:51:58;1.40;99.90
31527;DHT22;18136;42.236;-73.040;2023-01-19T02:55:17;1.50;99.90
31527;DHT22;18136;42.236;-73.040;2023-01-19T03:06:02;1.40;99.90
31527;DHT22;18136;42.236;-73.040;2023-01-19T03:08:41;1.30;99.90
31527;DHT22;18136;42.236;-73.040;2023-01-19T03:11:10;1.40;99.90
31527;DHT22;18136;42.236;-73.040;2023-01-19T03:13:56;1.40;99.90
31527;DHT22;18136;42.236;-73.040;2023-01-19T03:16:36;1.40;99.90
31527;DHT22;18136;42.236;-73.040;2023-01-19T03:19:42;1.40;99.90
31527;DHT22;18136;42.236;-73.040;2023-01-19T03:22:16;1.40;99.90
31527;DHT22;18136;42.236;-73.040;2023-01-19T03:24:45;1.40;99.90
31527;DHT22;18136;42.236;-73.040;2023-01-19T03:27:19;1.40;99.90
31527;DHT22;18136;42.236;-73.040;2023-01-19T03:29:51;1.40;99.90
31527;DHT22;18136;42.236;-73.040;2023-01-19T03:32:24;1.40;99.90
31527;DHT22;18136;42.236;-73.040;2023-01-19T03:34:54;1.30;99.90
31527;DHT22;18136;42.236;-73.040;2023-01-19T03:37:22;1.30;99.90
31527;DHT22;18136;42.236;-73.040;2023-01-19T03:39:49;1.30;99.90
31527;DHT22;18136;42.236;-73.040;2023-01-19T03:42:15;1.30;99.90
31527;DHT22;18136;42.236;-73.040;2023-01-19T03:44:44;1.20;99.90
31527;DHT22;18136;42.236;-73.040;2023-01-19T03:47:12;1.20;99.90
31527;DHT22;18136;42.236;-73.040;2023-01-19T03:49:41;1.20;99.90
31527;DHT22;18136;42.236;-73.040;2023-01-19T03:52:09;1.20;99.90
31527;DHT22;18136;42.236;-73.040;2023-01-19T03:54:35;1.30;99.90
31527;DHT22;18136;42.236;-73.040;2023-01-19T03:57:01;1.20;99.90
31527;DHT22;18136;42.236;-73.040;2023-01-19T03:59:28;1.20;99.90
31527;DHT22;18136;42.236;-73.040;2023-01-19T04:01:54;1.20;99.90
31527;DHT22;18136;42.236;-73.040;2023-01-19T04:04:20;1.20;99.90
31527;DHT22;18136;42.236;-73.040;2023-01-19T04:06:46;1.20;99.90
31527;DHT22;18136;42.236;-73.040;2023-01-19T04:09:12;1.20;99.90
31527;DHT22;18136;42.236;-73.040;2023-01-19T04:11:38;1.10;99.90
31527;DHT22;18136;42.236;-73.040;2023-01-19T04:14:04;1.20;99.90
31527;DHT22;18136;42.236;-73.040;2023-01-19T04:16:30;1.20;99.90
31527;DHT22;18136;42.236;-73.040;2023-01-19T04:18:57;1.30;99.90
31527;DHT22;18136;42.236;-73.040;2023-01-19T04:21:23;1.30;99.90
31527;DHT22;18136;42.236;-73.040;2023-01-19T04:23:50;1.30;99.90
31527;DHT22;18136;42.236;-73.040;2023-01-19T04:26:17;1.30;99.90
31527;DHT22;18136;42.236;-73.040;2023-01-19T04:28:43;1.30;99.90
31527;DHT22;18136;42.236;-73.040;2023-01-19T04:31:09;1.30;99.90
31527;DHT22;18136;42.236;-73.040;2023-01-19T04:33:35;1.30;99.90
31527;DHT22;18136;42.236;-73.040;2023-01-19T04:36:02;1.40;99.90
31527;DHT22;18136;42.236;-73.040;2023-01-19T04:38:28;1.40;99.90
31527;DHT22;18136;42.236;-73.040;2023-01-19T04:40:57;1.30;99.90
31527;DHT22;18136;42.236;-73.040;2023-01-19T04:43:23;1.20;99.90
31527;DHT22;18136;42.236;-73.040;2023-01-19T04:45:49;1.20;99.90
31527;DHT22;18136;42.236;-73.040;2023-01-19T04:48:16;1.30;99.90
31527;DHT22;18136;42.236;-73.040;2023-01-19T04:50:43;1.20;99.90
31527;DHT22;18136;42.236;-73.040;2023-01-19T04:53:10;1.20;99.90
31527;DHT22;18136;42.236;-73.040;2023-01-19T04:55:38;1.30;99.90
31527;DHT22;18136;42.236;-73.040;2023-01-19T04:58:04;1.20;99.90
31527;DHT22;18136;42.236;-73.040;2023-01-19T05:00:30;1.30;99.90
31527;DHT22;18136;42.236;-73.040;2023-01-19T05:02:58;1.30;99.90
31527;DHT22;18136;42.236;-73.040;2023-01-19T05:05:24;1.20;99.90
31527;DHT22;18136;42.236;-73.040;2023-01-19T05:07:52;1.20;99.90
31527;DHT22;18136;42.236;-73.040;2023-01-19T05:10:18;1.20;99.90
31527;DHT22;18136;42.236;-73.040;2023-01-19T05:12:44;1.20;99.90
31527;DHT22;18136;42.236;-73.040;2023-01-19T05:15:10;1.20;99.90
31527;DHT22;18136;42.236;-73.040;2023-01-19T05:17:36;1.10;99.90
31527;DHT22;18136;42.236;-73.040;2023-01-19T05:20:04;1.10;99.90
31527;DHT22;18136;42.236;-73.040;2023-01-19T05:22:30;1.10;99.90
31527;DHT22;18136;42.236;-73.040;2023-01-19T05:24:57;1.00;99.90
31527;DHT22;18136;42.236;-73.040;2023-01-19T05:27:23;1.00;99.90
31527;DHT22;18136;42.236;-73.040;2023-01-19T05:29:49;1.00;99.90
31527;DHT22;18136;42.236;-73.040;2023-01-19T05:32:16;0.90;99.90
31527;DHT22;18136;42.236;-73.040;2023-01-19T05:34:42;0.90;99.90
31527;DHT22;18136;42.236;-73.040;2023-01-19T05:37:08;1.00;99.90
31527;DHT22;18136;42.236;-73.040;2023-01-19T05:39:35;0.90;99.90
31527;DHT22;18136;42.236;-73.040;2023-01-19T05:42:01;1.00;99.90
31527;DHT22;18136;42.236;-73.040;2023-01-19T05:44:27;0.90;99.90
31527;DHT22;18136;42.236;-73.040;2023-01-19T05:46:54;0.90;99.90
31527;DHT22;18136;42.236;-73.040;2023-01-19T05:49:20;0.90;99.90
31527;DHT22;18136;42.236;-73.040;2023-01-19T05:51:46;0.90;99.90
31527;DHT22;18136;42.236;-73.040;2023-01-19T05:54:14;0.90;99.90
31527;DHT22;18136;42.236;-73.040;2023-01-19T05:56:40;0.90;99.90
31527;DHT22;18136;42.236;-73.040;2023-01-19T05:59:07;0.90;99.90
31527;DHT22;18136;42.236;-73.040;2023-01-19T06:01:33;1.00;99.90
31527;DHT22;18136;42.236;-73.040;2023-01-19T06:04:00;1.00;99.90
31527;DHT22;18136;42.236;-73.040;2023-01-19T06:06:26;1.00;99.90
31527;DHT22;18136;42.236;-73.040;2023-01-19T06:08:52;1.00;99.90
31527;DHT22;18136;42.236;-73.040;2023-01-19T06:11:18;1.00;99.90
31527;DHT22;18136;42.236;-73.040;2023-01-19T06:13:44;1.00;99.90
31527;DHT22;18136;42.236;-73.040;2023-01-19T06:16:13;1.00;99.90
31527;DHT22;18136;42.236;-73.040;2023-01-19T06:18:39;1.00;99.90
31527;DHT22;18136;42.236;-73.040;2023-01-19T06:21:06;1.00;99.90
31527;DHT22;18136;42.236;-73.040;2023-01-19T06:23:35;1.00;99.90
31527;DHT22;18136;42.236;-73.040;2023-01-19T06:26:02;0.90;99.90
31527;DHT22;18136;42.236;-73.040;2023-01-19T06:28:29;0.90;99.90
31527;DHT22;18136;42.236;-73.040;2023-01-19T06:30:55;0.90;99.90
31527;DHT22;18136;42.236;-73.040;2023-01-19T06:33:23;0.90;99.90
31527;DHT22;18136;42.236;-73.040;2023-01-19T06:35:50;0.90;99.90
31527;DHT22;18136;42.236;-73.040;2023-01-19T06:38:17;0.90;99.90
31527;DHT22;18136;42.236;-73.040;2023-01-19T06:40:44;0.90;99.90
31527;DHT22;18136;42.236;-73.040;2023-01-19T06:43:11;0.90;99.90
31527;DHT22;18136;42.236;-73.040;2023-01-19T06:45:38;0.90;99.90
31527;DHT22;18136;42.236;-73.040;2023-01-19T06:48:05;0.90;99.90
31527;DHT22;18136;42.236;-73.040;2023-01-19T06:50:31;0.90;99.90
31527;DHT22;18136;42.236;-73.040;2023-01-19T06:52:57;0.90;99.90
31527;DHT22;18136;42.236;-73.040;2023-01-19T06:55:23;1.00;99.90
31527;DHT22;18136;42.236;-73.040;2023-01-19T06:57:56;1.00;99.90
31527;DHT22;18136;42.236;-73.040;2023-01-19T07:00:23;1.00;99.90
31527;DHT22;18136;42.236;-73.040;2023-01-19T07:02:49;1.00;99.90
31527;DHT22;18136;42.236;-73.040;2023-01-19T07:05:15;0.90;99.90
31527;DHT22;18136;42.236;-73.040;2023-01-19T07:07:42;0.90;99.90
31527;DHT22;18136;42.236;-73.040;2023-01-19T07:10:10;0.80;99.90
31527;DHT22;18136;42.236;-73.040;2023-01-19T07:12:38;0.70;99.90
31527;DHT22;18136;42.236;-73.040;2023-01-19T07:15:06;0.80;99.90
31527;DHT22;18136;42.236;-73.040;2023-01-19T07:17:33;0.80;99.90
31527;DHT22;18136;42.236;-73.040;2023-01-19T07:19:59;0.90;99.90
31527;DHT22;18136;42.236;-73.040;2023-01-19T07:22:25;0.80;99.90
31527;DHT22;18136;42.236;-73.040;2023-01-19T07:24:51;0.90;99.90
31527;DHT22;18136;42.236;-73.040;2023-01-19T07:27:17;0.90;99.90
31527;DHT22;18136;42.236;-73.040;2023-01-19T07:29:43;0.90;99.90
31527;DHT22;18136;42.236;-73.040;2023-01-19T07:32:11;0.90;99.90
31527;DHT22;18136;42.236;-73.040;2023-01-19T07:34:38;1.00;99.90
31527;DHT22;18136;42.236;-73.040;2023-01-19T07:37:05;0.90;99.90
31527;DHT22;18136;42.236;-73.040;2023-01-19T07:39:31;1.00;99.90
31527;DHT22;18136;42.236;-73.040;2023-01-19T07:41:57;0.90;99.90
31527;DHT22;18136;42.236;-73.040;2023-01-19T07:44:23;1.00;99.90
31527;DHT22;18136;42.236;-73.040;2023-01-19T07:46:50;1.00;99.90
31527;DHT22;18136;42.236;-73.040;2023-01-19T07:49:16;1.00;99.90
31527;DHT22;18136;42.236;-73.040;2023-01-19T07:51:42;1.10;99.90
31527;DHT22;18136;42.236;-73.040;2023-01-19T07:54:09;1.10;99.90
31527;DHT22;18136;42.236;-73.040;2023-01-19T07:56:35;1.10;99.90
31527;DHT22;18136;42.236;-73.040;2023-01-19T07:59:02;1.10;99.90
31527;DHT22;18136;42.236;-73.040;2023-01-19T08:01:29;1.00;99.90
31527;DHT22;18136;42.236;-73.040;2023-01-19T08:03:56;1.00;99.90
31527;DHT22;18136;42.236;-73.040;2023-01-19T08:06:25;1.00;99.90
31527;DHT22;18136;42.236;-73.040;2023-01-19T08:08:52;0.90;99.90
31527;DHT22;18136;42.236;-73.040;2023-01-19T08:11:20;0.90;99.90
31527;DHT22;18136;42.236;-73.040;2023-01-19T08:13:46;0.90;99.90
31527;DHT22;18136;42.236;-73.040;2023-01-19T08:16:12;0.80;99.90
31527;DHT22;18136;42.236;-73.040;2023-01-19T08:18:38;0.90;99.90
31527;DHT22;18136;42.236;-73.040;2023-01-19T08:21:04;0.80;99.90
31527;DHT22;18136;42.236;-73.040;2023-01-19T08:23:31;0.80;99.90
31527;DHT22;18136;42.236;-73.040;2023-01-19T08:25:57;0.80;99.90
31527;DHT22;18136;42.236;-73.040;2023-01-19T08:28:24;0.80;99.90
31527;DHT22;18136;42.236;-73.040;2023-01-19T08:30:50;0.70;99.90
31527;DHT22;18136;42.236;-73.040;2023-01-19T08:33:23;0.70;99.90
31527;DHT22;18136;42.236;-73.040;2023-01-19T08:35:52;0.60;99.90
31527;DHT22;18136;42.236;-73.040;2023-01-19T08:38:18;0.60;99.90
31527;DHT22;18136;42.236;-73.040;2023-01-19T08:40:45;0.60;99.90
31527;DHT22;18136;42.236;-73.040;2023-01-19T08:43:13;0.60;99.90
31527;DHT22;18136;42.236;-73.040;2023-01-19T08:45:44;0.60;99.90
31527;DHT22;18136;42.236;-73.040;2023-01-19T08:48:18;0.60;99.90
31527;DHT22;18136;42.236;-73.040;2023-01-19T08:50:45;0.60;99.90
31527;DHT22;18136;42.236;-73.040;2023-01-19T08:53:12;0.60;99.90
31527;DHT22;18136;42.236;-73.040;2023-01-19T08:55:38;0.50;99.90
31527;DHT22;18136;42.236;-73.040;2023-01-19T08:58:05;0.50;99.90
31527;DHT22;18136;42.236;-73.040;2023-01-19T09:00:34;0.40;99.90
31527;DHT22;18136;42.236;-73.040;2023-01-19T09:03:07;0.40;99.90
31527;DHT22;18136;42.236;-73.040;2023-01-19T09:05:36;0.50;99.90
31527;DHT22;18136;42.236;-73.040;2023-01-19T09:08:08;0.50;99.90
31527;DHT22;18136;42.236;-73.040;2023-01-19T09:10:36;0.40;99.90
31527;DHT22;18136;42.236;-73.040;2023-01-19T09:13:07;0.40;99.90
31527;DHT22;18136;42.236;-73.040;2023-01-19T09:15:37;0.40;99.90
31527;DHT22;18136;42.236;-73.040;2023-01-19T09:18:04;0.40;99.90
31527;DHT22;18136;42.236;-73.040;2023-01-19T09:20:32;0.40;99.90
31527;DHT22;18136;42.236;-73.040;2023-01-19T09:23:00;0.40;99.90
31527;DHT22;18136;42.236;-73.040;2023-01-19T09:25:26;0.40;99.90
31527;DHT22;18136;42.236;-73.040;2023-01-19T09:27:52;0.40;99.90
31527;DHT22;18136;42.236;-73.040;2023-01-19T09:30:20;0.30;99.90
31527;DHT22;18136;42.236;-73.040;2023-01-19T09:32:47;0.40;99.90
31527;DHT22;18136;42.236;-73.040;2023-01-19T09:35:13;0.40;99.90
31527;DHT22;18136;42.236;-73.040;2023-01-19T09:37:39;0.40;99.90
31527;DHT22;18136;42.236;-73.040;2023-01-19T09:40:06;0.40;99.90
31527;DHT22;18136;42.236;-73.040;2023-01-19T09:42:41;0.30;99.90
31527;DHT22;18136;42.236;-73.040;2023-01-19T09:45:34;0.30;99.90
31527;DHT22;18136;42.236;-73.040;2023-01-19T09:48:05;0.30;99.90
31527;DHT22;18136;42.236;-73.040;2023-01-19T09:50:39;0.20;99.90
31527;DHT22;18136;42.236;-73.040;2023-01-19T09:53:43;0.20;99.90
31527;DHT22;18136;42.236;-73.040;2023-01-19T09:56:17;0.30;99.90
31527;DHT22;18136;42.236;-73.040;2023-01-19T09:58:44;0.40;99.90
31527;DHT22;18136;42.236;-73.040;2023-01-19T10:04:13;0.30;99.90
31527;DHT22;18136;42.236;-73.040;2023-01-19T10:06:42;0.30;99.90
31527;DHT22;18136;42.236;-73.040;2023-01-19T10:09:32;0.30;99.90
31527;DHT22;18136;42.236;-73.040;2023-01-19T10:12:16;0.30;99.90
31527;DHT22;18136;42.236;-73.040;2023-01-19T10:15:11;0.30;99.90
31527;DHT22;18136;42.236;-73.040;2023-01-19T10:18:11;0.40;99.90
31527;DHT22;18136;42.236;-73.040;2023-01-19T10:21:25;0.40;99.90
31527;DHT22;18136;42.236;-73.040;2023-01-19T10:24:29;0.40;99.90
31527;DHT22;18136;42.236;-73.040;2023-01-19T10:26:57;0.40;99.90
31527;DHT22;18136;42.236;-73.040;2023-01-19T10:29:35;0.40;99.90
31527;DHT22;18136;42.236;-73.040;2023-01-19T10:32:34;0.40;99.90
31527;DHT22;18136;42.236;-73.040;2023-01-19T10:35:03;0.50;99.90
31527;DHT22;18136;42.236;-73.040;2023-01-19T10:37:37;0.50;99.90
31527;DHT22;18136;42.236;-73.040;2023-01-19T10:42:39;0.30;99.90
31527;DHT22;18136;42.236;-73.040;2023-01-19T10:45:24;0.30;99.90
31527;DHT22;18136;42.236;-73.040;2023-01-19T10:47:51;0.30;99.90
31527;DHT22;18136;42.236;-73.040;2023-01-19T10:50:29;0.30;99.90
31527;DHT22;18136;42.236;-73.040;2023-01-19T10:52:57;0.30;99.90
31527;DHT22;18136;42.236;-73.040;2023-01-19T10:55:29;0.30;99.90
31527;DHT22;18136;42.236;-73.040;2023-01-19T10:57:57;0.30;99.90
31527;DHT22;18136;42.236;-73.040;2023-01-19T11:03:30;0.30;99.90
31527;DHT22;18136;42.236;-73.040;2023-01-19T11:08:45;0.30;99.90
31527;DHT22;18136;42.236;-73.040;2023-01-19T11:11:12;0.30;99.90
31527;DHT22;18136;42.236;-73.040;2023-01-19T11:13:39;0.30;99.90
31527;DHT22;18136;42.236;-73.040;2023-01-19T11:16:24;0.30;99.90
31527;DHT22;18136;42.236;-73.040;2023-01-19T11:18:52;0.30;99.90
31527;DHT22;18136;42.236;-73.040;2023-01-19T11:21:22;0.30;99.90
31527;DHT22;18136;42.236;-73.040;2023-01-19T11:23:54;0.10;99.90
31527;DHT22;18136;42.236;-73.040;2023-01-19T11:29:01;0.20;99.90
31527;DHT22;18136;42.236;-73.040;2023-01-19T11:33:59;0.20;99.90
31527;DHT22;18136;42.236;-73.040;2023-01-19T11:36:27;0.30;99.90
31527;DHT22;18136;42.236;-73.040;2023-01-19T11:38:56;0.30;99.90
31527;DHT22;18136;42.236;-73.040;2023-01-19T11:43:57;0.40;99.90
31527;DHT22;18136;42.236;-73.040;2023-01-19T11:46:30;0.50;99.90
31527;DHT22;18136;42.236;-73.040;2023-01-19T11:48:59;0.40;99.90
31527;DHT22;18136;42.236;-73.040;2023-01-19T11:51:33;0.40;99.90
31527;DHT22;18136;42.236;-73.040;2023-01-19T11:54:04;0.40;99.90
31527;DHT22;18136;42.236;-73.040;2023-01-19T11:56:38;0.30;99.90
31527;DHT22;18136;42.236;-73.040;2023-01-19T11:59:07;0.30;99.90
31527;DHT22;18136;42.236;-73.040;2023-01-19T12:01:44;0.40;99.90
31527;DHT22;18136;42.236;-73.040;2023-01-19T12:04:35;0.30;99.90
31527;DHT22;18136;42.236;-73.040;2023-01-19T12:07:05;0.20;99.90
31527;DHT22;18136;42.236;-73.040;2023-01-19T12:10:06;0.20;99.90
31527;DHT22;18136;42.236;-73.040;2023-01-19T12:12:40;0.30;99.90
31527;DHT22;18136;42.236;-73.040;2023-01-19T12:15:19;0.30;99.90
31527;DHT22;18136;42.236;-73.040;2023-01-19T12:17:51;0.20;99.90
31527;DHT22;18136;42.236;-73.040;2023-01-19T12:20:50;0.10;99.90
31527;DHT22;18136;42.236;-73.040;2023-01-19T12:28:35;0.10;99.90
31527;DHT22;18136;42.236;-73.040;2023-01-19T12:31:02;0.20;99.90
31527;DHT22;18136;42.236;-73.040;2023-01-19T12:33:36;0.20;99.90
31527;DHT22;18136;42.236;-73.040;2023-01-19T12:36:09;0.20;99.90
31527;DHT22;18136;42.236;-73.040;2023-01-19T12:38:43;0.20;99.90
31527;DHT22;18136;42.236;-73.040;2023-01-19T12:41:33;0.20;99.90
31527;DHT22;18136;42.236;-73.040;2023-01-19T12:46:49;0.20;99.90
31527;DHT22;18136;42.236;-73.040;2023-01-19T12:52:26;0.20;99.90
31527;DHT22;18136;42.236;-73.040;2023-01-19T12:58:00;0.30;99.90
31527;DHT22;18136;42.236;-73.040;2023-01-19T13:00:34;0.30;99.90
31527;DHT22;18136;42.236;-73.040;2023-01-19T13:03:03;0.20;99.90
31527;DHT22;18136;42.236;-73.040;2023-01-19T13:13:40;0.10;99.90
31527;DHT22;18136;42.236;-73.040;2023-01-19T13:21:33;0.20;99.90
31527;DHT22;18136;42.236;-73.040;2023-01-19T13:24:05;0.20;99.90
31527;DHT22;18136;42.236;-73.040;2023-01-19T13:29:36;0.20;99.90
31527;DHT22;18136;42.236;-73.040;2023-01-19T13:32:16;0.20;99.90
31527;DHT22;18136;42.236;-73.040;2023-01-19T13:34:52;0.30;99.90
31527;DHT22;18136;42.236;-73.040;2023-01-19T13:37:21;0.20;99.90
31527;DHT22;18136;42.236;-73.040;2023-01-19T13:39:50;0.20;99.90
31527;DHT22;18136;42.236;-73.040;2023-01-19T13:42:38;0.30;99.90
31527;DHT22;18136;42.236;-73.040;2023-01-19T13:47:53;0.30;99.90
31527;DHT22;18136;42.236;-73.040;2023-01-19T13:50:30;0.40;99.90
31527;DHT22;18136;42.236;-73.040;2023-01-19T13:52:57;0.40;99.90
31527;DHT22;18136;42.236;-73.040;2023-01-19T13:55:26;0.40;99.90
31527;DHT22;18136;42.236;-73.040;2023-01-19T13:57:53;0.40;99.90
31527;DHT22;18136;42.236;-73.040;2023-01-19T14:00:27;0.40;99.90
31527;DHT22;18136;42.236;-73.040;2023-01-19T14:02:55;0.50;99.90
31527;DHT22;18136;42.236;-73.040;2023-01-19T14:13:13;0.40;99.90
31527;DHT22;18136;42.236;-73.040;2023-01-19T14:15:40;0.40;99.90
31527;DHT22;18136;42.236;-73.040;2023-01-19T14:18:21;0.40;99.90
31527;DHT22;18136;42.236;-73.040;2023-01-19T14:21:13;0.40;99.90
31527;DHT22;18136;42.236;-73.040;2023-01-19T14:23:54;0.40;99.90
31527;DHT22;18136;42.236;-73.040;2023-01-19T14:31:48;0.40;99.90
31527;DHT22;18136;42.236;-73.040;2023-01-19T14:34:40;0.40;99.90
31527;DHT22;18136;42.236;-73.040;2023-01-19T14:37:20;0.40;99.90
31527;DHT22;18136;42.236;-73.040;2023-01-19T14:39:50;0.40;99.90
31527;DHT22;18136;42.236;-73.040;2023-01-19T14:42:31;0.40;99.90
31527;DHT22;18136;42.236;-73.040;2023-01-19T14:45:00;0.40;99.90
31527;DHT22;18136;42.236;-73.040;2023-01-19T14:47:34;0.40;99.90
31527;DHT22;18136;42.236;-73.040;2023-01-19T14:50:16;0.50;99.90
31527;DHT22;18136;42.236;-73.040;2023-01-19T14:52:56;0.50;99.90
31527;DHT22;18136;42.236;-73.040;2023-01-19T14:55:51;0.50;99.90
31527;DHT22;18136;42.236;-73.040;2023-01-19T14:58:21;0.50;99.90
31527;DHT22;18136;42.236;-73.040;2023-01-19T15:00:47;0.40;99.90
31527;DHT22;18136;42.236;-73.040;2023-01-19T15:03:14;0.40;99.90
31527;DHT22;18136;42.236;-73.040;2023-01-19T15:05:42;0.50;99.90
31527;DHT22;18136;42.236;-73.040;2023-01-19T15:08:19;0.50;99.90
31527;DHT22;18136;42.236;-73.040;2023-01-19T15:10:46;0.50;99.90
31527;DHT22;18136;42.236;-73.040;2023-01-19T15:13:20;0.60;99.90
31527;DHT22;18136;42.236;-73.040;2023-01-19T15:15:47;0.60;99.90
31527;DHT22;18136;42.236;-73.040;2023-01-19T15:18:24;0.60;99.90
31527;DHT22;18136;42.236;-73.040;2023-01-19T15:20:54;0.60;99.90
31527;DHT22;18136;42.236;-73.040;2023-01-19T15:23:20;0.60;99.90
31527;DHT22;18136;42.236;-73.040;2023-01-19T15:25:57;0.60;99.90
31527;DHT22;18136;42.236;-73.040;2023-01-19T15:28:23;0.70;99.90
31527;DHT22;18136;42.236;-73.040;2023-01-19T15:30:49;0.60;99.90
31527;DHT22;18136;42.236;-73.040;2023-01-19T15:35:44;0.60;99.90
31527;DHT22;18136;42.236;-73.040;2023-01-19T15:38:10;0.60;99.90
31527;DHT22;18136;42.236;-73.040;2023-01-19T15:40:36;0.60;99.90
31527;DHT22;18136;42.236;-73.040;2023-01-19T15:43:02;0.60;99.90
31527;DHT22;18136;42.236;-73.040;2023-01-19T15:45:35;0.70;99.90
31527;DHT22;18136;42.236;-73.040;2023-01-19T15:48:08;0.70;99.90
31527;DHT22;18136;42.236;-73.040;2023-01-19T15:50:37;0.70;99.90
31527;DHT22;18136;42.236;-73.040;2023-01-19T15:53:04;0.70;99.90
31527;DHT22;18136;42.236;-73.040;2023-01-19T15:55:31;0.70;99.90
31527;DHT22;18136;42.236;-73.040;2023-01-19T15:57:57;0.70;99.90
31527;DHT22;18136;42.236;-73.040;2023-01-19T16:00:30;0.70;99.90
31527;DHT22;18136;42.236;-73.040;2023-01-19T16:02:57;0.70;99.90
31527;DHT22;18136;42.236;-73.040;2023-01-19T16:05:24;0.70;99.90
31527;DHT22;18136;42.236;-73.040;2023-01-19T16:07:50;0.70;99.90
31527;DHT22;18136;42.236;-73.040;2023-01-19T16:10:16;0.70;99.90
31527;DHT22;18136;42.236;-73.040;2023-01-19T16:12:43;0.70;99.90
31527;DHT22;18136;42.236;-73.040;2023-01-19T16:15:11;0.70;99.90
31527;DHT22;18136;42.236;-73.040;2023-01-19T16:17:37;0.70;99.90
31527;DHT22;18136;42.236;-73.040;2023-01-19T16:20:04;0.80;99.90
31527;DHT22;18136;42.236;-73.040;2023-01-19T16:22:30;0.80;99.90
31527;DHT22;18136;42.236;-73.040;2023-01-19T16:24:56;0.90;99.90
31527;DHT22;18136;42.236;-73.040;2023-01-19T16:27:23;0.90;99.90
31527;DHT22;18136;42.236;-73.040;2023-01-19T16:29:49;0.90;99.90
31527;DHT22;18136;42.236;-73.040;2023-01-19T16:32:16;0.90;99.90
31527;DHT22;18136;42.236;-73.040;2023-01-19T16:34:42;0.90;99.90
31527;DHT22;18136;42.236;-73.040;2023-01-19T16:37:08;0.90;99.90
31527;DHT22;18136;42.236;-73.040;2023-01-19T16:39:35;0.90;99.90
31527;DHT22;18136;42.236;-73.040;2023-01-19T16:42:01;0.90;99.90
31527;DHT22;18136;42.236;-73.040;2023-01-19T16:44:27;0.90;99.90
31527;DHT22;18136;42.236;-73.040;2023-01-19T16:46:53;0.90;99.90
31527;DHT22;18136;42.236;-73.040;2023-01-19T16:49:22;1.00;99.90
31527;DHT22;18136;42.236;-73.040;2023-01-19T16:51:49;1.00;99.90
31527;DHT22;18136;42.236;-73.040;2023-01-19T16:54:21;1.00;99.90